Time;durP1;ratioP1;P1;durP2;ratioP2;P2;SDS_P1;SDS_P2;PMS_P1;PMS_P2;Temp;Humidity;BMP_temperature;BMP_pressure;BME280_temperature;BME280_humidity;BME280_pressure;Samples;Min_cycle;Max_cycle;Signal;HPM_P1;HPM_P2
2023/02/24 00:01:42;;;;;;;;;;;14.90;80.70;;;;;;5107378;28;20372;-61
2023/02/24 00:04:12;;;;;;;;;;;14.80;79.00;;;;;;5106977;28;20767;-62
2023/02/24 00:06:40;;;;;;;;;;;14.80;80.20;;;;;;5100854;28;20427;-60
2023/02/24 00:09:09;;;;;;;;;;;14.80;80.80;;;;;;5107444;28;20063;-57
2023/02/24 00:11:36;;;;;;;;;;;14.80;79.50;;;;;;5103289;28;19956;-59
2023/02/24 00:14:05;;;;;;;;;;;14.80;82.30;;;;;;5106812;28;19972;-56
2023/02/24 00:16:31;;;;;;;;;;;14.70;82.50;;;;;;5108010;28;19961;-63
2023/02/24 00:19:56;;;;;;;10.95;4.40;;;14.70;81.20;;;;;;5132667;27;20180;-59
2023/02/24 00:22:22;;;;;;;14.30;7.07;;;14.80;82.50;;;;;;5132333;27;20068;-61
2023/02/24 00:24:49;;;;;;;12.05;5.90;;;14.80;84.40;;;;;;5132419;27;20080;-58
2023/02/24 00:27:15;;;;;;;;;;;14.70;84.70;;;;;;5134958;27;20079;-57
2023/02/24 00:29:46;;;;;;;13.80;4.10;;;14.60;85.30;;;;;;5133844;27;19960;-62
2023/02/24 00:32:13;;;;;;;8.25;3.42;;;14.50;86.70;;;;;;5132370;27;20119;-63
2023/02/24 00:34:40;;;;;;;9.13;3.50;;;14.40;88.90;;;;;;5135501;27;20144;-59
2023/02/24 00:37:06;;;;;;;10.15;2.70;;;14.40;89.80;;;;;;5135066;27;20067;-60
2023/02/24 00:39:35;;;;;;;12.38;2.80;;;14.40;90.70;;;;;;5132655;27;20182;-59
2023/02/24 00:42:06;;;;;;;17.77;2.67;;;14.40;91.00;;;;;;5133605;27;20068;-63
2023/02/24 00:44:38;;;;;;;11.93;2.47;;;14.30;91.10;;;;;;5130356;27;20072;-60
2023/02/24 00:47:07;;;;;;;8.05;1.70;;;14.30;91.50;;;;;;5133689;27;20614;-61
2023/02/24 00:49:35;;;;;;;8.30;1.73;;;14.20;91.40;;;;;;5135055;27;20125;-57
2023/02/24 00:52:05;;;;;;;6.75;2.05;;;14.20;91.10;;;;;;5130535;27;20068;-62
2023/02/24 00:54:35;;;;;;;10.65;3.17;;;14.10;90.70;;;;;;5127232;27;20122;-61
2023/02/24 00:57:02;;;;;;;9.88;3.80;;;14.20;90.50;;;;;;5128971;27;20082;-64
2023/02/24 00:59:29;;;;;;;17.92;5.88;;;14.20;90.20;;;;;;5129581;27;20098;-59
2023/02/24 01:01:55;;;;;;;10.40;3.65;;;14.20;89.50;;;;;;5130965;27;20173;-59
2023/02/24 01:04:22;;;;;;;;;;;14.20;87.50;;;;;;5137074;27;20066;-62
2023/02/24 01:06:58;;;;;;;28.05;14.10;;;14.20;84.30;;;;;;5129488;27;19968;-63
2023/02/24 01:09:27;;;;;;;41.65;28.30;;;13.00;84.10;;;;;;5128574;27;20127;-63
2023/02/24 01:14:39;;;;;;;11.40;6.32;;;14.20;84.10;;;;;;5124716;28;20597;-59
2023/02/24 01:17:07;;;;;;;9.32;4.13;;;14.30;84.30;;;;;;5125877;28;20081;-62
2023/02/24 01:19:35;;;;;;;9.82;4.75;;;13.90;84.30;;;;;;5125835;28;20197;-64
2023/02/24 01:22:04;;;;;;;10.20;4.40;;;14.40;99.90;;;;;;5125574;28;20054;-60
2023/02/24 01:24:35;;;;;;;14.40;3.90;;;14.30;99.90;;;;;;5125124;28;20123;-65
2023/02/24 01:27:01;;;;;;;8.52;3.50;;;14.20;98.90;;;;;;5124466;28;20047;-62
2023/02/24 01:29:28;;;;;;;7.70;3.40;;;14.10;98.30;;;;;;5120495;28;20070;-61
2023/02/24 01:32:02;;;;;;;;;;;14.30;92.40;;;;;;5109075;28;20412;-66
2023/02/24 01:34:29;;;;;;;4.82;1.70;;;14.30;90.90;;;;;;5105255;28;19928;-65
2023/02/24 01:36:55;;;;;;;;;;;14.20;83.30;;;;;;5092674;28;20083;-65
2023/02/24 01:39:21;;;;;;;7.25;2.40;;;14.10;82.30;;;;;;5112791;28;19995;-65
2023/02/24 01:41:49;;;;;;;;;;;14.20;82.90;;;;;;5113475;28;20082;-64
2023/02/24 01:44:21;;;;;;;8.02;1.67;;;14.10;82.90;;;;;;5111583;28;20337;-63
2023/02/24 01:46:50;;;;;;;9.02;1.63;;;14.00;99.90;;;;;;5108712;28;20028;-61
2023/02/24 01:49:32;;;;;;;4.13;1.58;;;13.70;94.40;;;;;;5108815;28;20044;-62
2023/02/24 01:52:01;;;;;;;5.47;1.50;;;13.80;93.70;;;;;;5108589;28;20404;-63
2023/02/24 01:54:30;;;;;;;6.30;1.58;;;;;;;;;;5109911;28;20031;-63
2023/02/24 01:56:57;;;;;;;8.63;1.50;;;;;;;;;;5109082;28;20933;-63
2023/02/24 01:59:27;;;;;;;3.42;1.60;;;14.00;80.10;;;;;;5109859;28;20032;-66
2023/02/24 02:02:02;;;;;;;5.82;1.80;;;13.70;99.90;;;;;;5108736;28;20136;-63
2023/02/24 02:04:47;;;;;;;9.85;2.00;;;;;;;;;;5109188;28;20049;-63
2023/02/24 02:07:17;;;;;;;10.25;2.10;;;13.80;99.90;;;;;;5109233;28;20016;-66
2023/02/24 02:09:46;;;;;;;2.17;1.38;;;13.60;91.60;;;;;;5109747;28;20100;-62
2023/02/24 02:12:13;;;;;;;3.33;1.08;;;14.00;96.50;;;;;;5109279;28;20100;-65
2023/02/24 02:14:46;;;;;;;1.60;0.90;;;14.10;84.80;;;;;;5106659;28;20083;-65
2023/02/24 02:17:25;;;;;;;2.92;1.20;;;;;;;;;;5109751;28;20119;-63
2023/02/24 02:20:16;;;;;;;4.13;0.70;;;13.80;94.80;;;;;;5108661;28;20136;-64
2023/02/24 02:23:01;;;;;;;3.13;0.60;;;13.90;71.10;;;;;;5109148;28;20027;-66
2023/02/24 02:25:45;;;;;;;3.55;0.60;;;14.00;97.90;;;;;;5108855;28;20069;-62
2023/02/24 02:28:30;;;;;;;3.50;0.90;;;13.90;86.80;;;;;;5108031;28;20085;-64
2023/02/24 02:31:15;;;;;;;2.45;0.82;;;;;;;;;;5108454;28;20123;-63
2023/02/24 02:34:00;;;;;;;2.60;0.70;;;13.90;73.20;;;;;;5108171;28;20451;-64
2023/02/24 02:36:37;;;;;;;5.35;1.00;;;13.80;96.80;;;;;;5109591;28;20120;-66
2023/02/24 02:39:03;;;;;;;;;;;13.90;75.50;;;;;;5111187;28;20149;-65
2023/02/24 02:41:58;;;;;;;2.95;1.00;;;13.80;96.90;;;;;;5106685;28;19960;-66
2023/02/24 02:44:39;;;;;;;3.70;1.00;;;13.70;91.30;;;;;;5101623;28;20444;-64
2023/02/24 02:47:33;;;;;;;5.70;1.00;;;13.60;99.90;;;;;;5109572;28;20547;-65
2023/02/24 02:50:18;;;;;;;12.43;1.17;;;13.80;78.70;;;;;;5109283;28;20388;-64
2023/02/24 02:52:54;;;;;;;7.15;1.13;;;13.80;90.90;;;;;;5109812;28;20055;-64
2023/02/24 02:55:44;;;;;;;5.43;1.10;;;13.70;95.60;;;;;;5108187;28;20147;-66
2023/02/24 02:58:15;;;;;;;3.00;1.20;;;13.60;95.90;;;;;;5088623;28;20837;-64
2023/02/24 03:01:00;;;;;;;6.22;0.93;;;13.60;98.70;;;;;;5107764;28;20080;-65
2023/02/24 03:03:33;;;;;;;5.13;1.00;;;13.60;78.40;;;;;;5109015;28;20072;-63
2023/02/24 03:06:07;;;;;;;1.60;0.75;;;13.70;96.60;;;;;;5108929;28;20057;-64
2023/02/24 03:08:38;;;;;;;3.20;0.82;;;13.30;97.00;;;;;;5106710;28;20486;-64
2023/02/24 03:11:10;;;;;;;4.78;1.33;;;13.50;96.80;;;;;;5108190;28;20072;-65
2023/02/24 03:13:42;;;;;;;4.65;1.80;;;13.60;99.90;;;;;;5109073;28;20048;-64
2023/02/24 03:16:13;;;;;;;4.53;1.30;;;13.60;99.90;;;;;;5107265;28;20062;-65
2023/02/24 03:19:00;;;;;;;6.72;1.80;;;13.60;99.90;;;;;;5106973;28;20117;-62
2023/02/24 03:21:36;;;;;;;5.57;2.17;;;13.10;98.10;;;;;;5106382;28;20088;-67
2023/02/24 03:24:05;;;;;;;7.22;2.15;;;13.30;99.90;;;;;;5106896;28;20159;-65
2023/02/24 03:26:40;;;;;;;5.00;1.70;;;13.00;93.70;;;;;;5109273;28;20107;-67
2023/02/24 03:29:54;;;;;;;4.07;1.20;;;13.20;88.80;;;;;;5109377;28;20043;-66
2023/02/24 03:32:54;;;;;;;3.28;1.08;;;12.90;98.70;;;;;;5007737;28;20136;-65
2023/02/24 03:35:30;;;;;;;4.10;0.90;;;12.80;97.70;;;;;;5006020;28;20094;-65
2023/02/24 03:37:58;;;;;;;6.78;1.27;;;12.90;97.10;;;;;;5005827;28;20094;-64
2023/02/24 03:40:33;;;;;;;3.75;1.42;;;13.20;97.60;;;;;;5005664;28;20169;-65
2023/02/24 03:43:10;;;;;;;6.95;2.53;;;13.00;80.40;;;;;;4996381;28;20531;-69
2023/02/24 03:45:38;;;;;;;9.27;3.67;;;13.50;99.40;;;;;;5006929;28;20068;-64
2023/02/24 03:48:08;;;;;;;13.98;5.93;;;12.90;99.90;;;;;;5007514;28;20159;-66
2023/02/24 03:50:36;;;;;;;9.15;4.47;;;12.90;99.80;;;;;;5006427;28;20225;-65
2023/02/24 03:53:30;;;;;;;11.05;3.50;;;13.10;88.50;;;;;;5005903;28;20533;-67
2023/02/24 03:56:12;;;;;;;6.57;2.30;;;12.90;84.10;;;;;;5005908;28;20209;-66
2023/02/24 03:59:01;;;;;;;13.75;3.78;;;13.00;90.30;;;;;;5005610;28;20055;-64
2023/02/24 04:01:56;;;;;;;7.55;3.22;;;12.80;97.50;;;;;;5006492;28;20097;-66
2023/02/24 04:04:45;;;;;;;5.35;1.70;;;12.40;83.60;;;;;;5004269;28;20176;-67
2023/02/24 04:07:16;;;;;;;8.88;1.70;;;12.60;84.30;;;;;;5026127;28;20090;-67
2023/02/24 04:09:43;;;;;;;2.83;1.90;;;12.60;84.40;;;;;;5106381;28;20082;-65
2023/02/24 04:12:27;;;;;;;;;;;12.50;84.40;;;;;;5107941;28;20068;-67
2023/02/24 04:15:08;;;;;;;4.55;1.40;;;12.50;84.60;;;;;;5106703;28;19960;-67
2023/02/24 04:17:51;;;;;;;8.57;1.80;;;12.50;84.90;;;;;;5107027;28;20084;-64
2023/02/24 04:20:21;;;;;;;7.40;1.40;;;12.60;84.60;;;;;;5108682;28;20590;-66
2023/02/24 04:22:58;;;;;;;4.38;1.20;;;12.60;84.50;;;;;;5108213;28;20072;-67
2023/02/24 04:25:27;;;;;;;4.57;1.85;;;12.50;85.00;;;;;;5107628;28;20533;-63
2023/02/24 04:27:57;;;;;;;8.35;3.70;;;12.40;99.70;;;;;;5108078;28;20072;-65
2023/02/24 04:30:28;;;;;;;6.88;3.42;;;11.90;99.20;;;;;;5108491;28;20079;-65
2023/02/24 04:32:55;;;;;;;9.68;3.70;;;12.40;85.20;;;;;;5108422;28;20397;-65
2023/02/24 04:35:21;;;;;;;8.02;4.15;;;12.50;99.90;;;;;;5108105;28;20072;-64
2023/02/24 04:37:49;;;;;;;6.57;2.80;;;12.60;90.70;;;;;;5106840;28;20088;-66
2023/02/24 04:40:20;;;;;;;3.83;1.67;;;12.20;85.00;;;;;;5090181;28;20079;-64
2023/02/24 04:42:48;;;;;;;9.93;2.38;;;12.20;85.50;;;;;;5108037;28;20125;-66
2023/02/24 04:45:28;;;;;;;5.90;2.00;;;12.30;99.90;;;;;;5089948;28;20084;-66
2023/02/24 04:47:59;;;;;;;10.38;1.80;;;12.30;87.00;;;;;;5108297;28;20100;-64
2023/02/24 04:50:29;;;;;;;7.97;3.97;;;12.20;86.50;;;;;;5107439;28;20076;-65
2023/02/24 04:53:01;;;;;;;9.57;3.55;;;11.90;92.10;;;;;;5107075;28;20421;-66
2023/02/24 04:55:32;;;;;;;9.77;2.58;;;12.00;86.30;;;;;;5089480;28;20080;-64
2023/02/24 04:58:01;;;;;;;7.38;1.70;;;12.00;86.60;;;;;;5108225;28;20145;-65
2023/02/24 05:00:34;;;;;;;7.18;2.15;;;12.10;86.60;;;;;;5107860;28;20068;-66
2023/02/24 05:03:06;;;;;;;6.07;2.70;;;12.10;98.50;;;;;;5108322;28;20060;-65
2023/02/24 05:05:33;;;;;;;3.72;1.95;;;12.20;87.10;;;;;;5109763;28;20088;-69
2023/02/24 05:08:07;;;;;;;3.30;1.83;;;12.20;87.20;;;;;;5111754;28;20092;-66
2023/02/24 05:10:48;;;;;;;7.38;2.33;;;12.20;87.50;;;;;;5111104;28;20148;-65
2023/02/24 05:13:26;;;;;;;6.68;1.67;;;12.10;88.10;;;;;;5112782;28;20079;-66
2023/02/24 05:15:58;;;;;;;4.38;2.03;;;12.00;88.40;;;;;;5112368;28;20071;-66
2023/02/24 05:18:28;;;;;;;4.55;2.50;;;12.00;88.70;;;;;;5111955;28;20119;-64
2023/02/24 05:23:45;;;;;;;9.30;4.05;;;12.00;88.60;;;;;;5111745;28;20078;-63
2023/02/24 05:26:15;;;;;;;5.10;2.97;;;12.00;88.60;;;;;;5112052;28;20427;-65
2023/02/24 05:28:47;;;;;;;3.83;1.98;;;11.90;88.40;;;;;;5110995;28;20084;-66
2023/02/24 05:31:17;;;;;;;5.60;1.77;;;12.00;88.20;;;;;;5110965;28;20080;-66
2023/02/24 05:33:47;;;;;;;4.75;1.70;;;12.00;88.10;;;;;;5110484;28;20079;-63
2023/02/24 05:36:19;;;;;;;6.55;2.10;;;12.00;87.80;;;;;;5112494;28;20145;-66
2023/02/24 05:38:47;;;;;;;4.68;2.20;;;12.00;87.40;;;;;;5110620;28;20091;-64
2023/02/24 05:41:16;;;;;;;5.45;2.08;;;12.00;87.20;;;;;;5111469;28;20064;-66
2023/02/24 05:44:03;;;;;;;4.55;1.83;;;12.00;87.10;;;;;;5110909;28;20080;-65
2023/02/24 05:46:32;;;;;;;3.00;1.30;;;12.00;86.80;;;;;;5110858;28;20067;-65
2023/02/24 05:49:01;;;;;;;5.60;1.30;;;12.00;86.60;;;;;;5110854;28;20163;-60
2023/02/24 05:51:34;;;;;;;1.85;1.00;;;11.90;86.60;;;;;;5111580;28;20111;-65
2023/02/24 05:54:09;;;;;;;8.15;1.00;;;11.90;86.70;;;;;;5111224;28;20590;-65
2023/02/24 05:56:38;;;;;;;3.53;0.95;;;11.90;86.50;;;;;;5109903;28;20075;-62
2023/02/24 05:59:07;;;;;;;1.83;0.80;;;11.90;86.10;;;;;;5110883;28;20092;-65
2023/02/24 06:01:45;;;;;;;3.22;1.30;;;11.90;86.80;;;;;;5111181;28;20094;-64
2023/02/24 06:04:19;;;;;;;2.53;1.45;;;12.00;87.00;;;;;;5110509;28;20167;-65
2023/02/24 06:06:53;;;;;;;5.78;2.10;;;12.10;92.40;;;;;;5110513;28;20535;-65
2023/02/24 06:09:22;;;;;;;3.30;1.80;;;11.90;86.50;;;;;;5110007;28;20148;-64
2023/02/24 06:11:48;;;;;;;5.43;1.48;;;11.80;87.00;;;;;;5111767;28;20096;-67
2023/02/24 06:14:15;;;;;;;3.40;1.60;;;11.80;87.00;;;;;;5111111;28;20232;-62
2023/02/24 06:16:42;;;;;;;4.45;1.33;;;11.80;86.90;;;;;;5092603;28;20088;-62
2023/02/24 06:19:11;;;;;;;1.83;1.30;;;11.80;87.00;;;;;;5110250;28;20467;-65
2023/02/24 06:21:42;;;;;;;4.82;1.00;;;11.80;88.00;;;;;;5073368;28;20525;-65
2023/02/24 06:24:17;;;;;;;4.60;1.00;;;11.80;87.00;;;;;;5109205;28;20068;-66
2023/02/24 06:26:45;;;;;;;3.42;1.20;;;11.80;86.40;;;;;;5109270;28;20067;-67
2023/02/24 06:29:16;;;;;;;3.70;1.30;;;11.90;86.10;;;;;;5110633;28;20620;-66
2023/02/24 06:31:44;;;;;;;1.80;1.15;;;11.80;87.90;;;;;;5109218;28;20159;-64
2023/02/24 06:34:12;;;;;;;9.02;1.50;;;11.90;85.70;;;;;;5109455;28;20137;-61
2023/02/24 06:36:39;;;;;;;1.20;0.90;;;12.00;99.90;;;;;;5110356;28;20555;-64
2023/02/24 06:39:12;;;;;;;4.18;1.10;;;12.00;97.80;;;;;;5109927;28;20137;-63
2023/02/24 06:41:38;;;;;;;4.20;1.20;;;12.20;99.80;;;;;;5110581;28;20075;-65
2023/02/24 06:44:04;;;;;;;;;;;11.90;85.80;;;;;;5110795;28;20428;-65
2023/02/24 06:46:31;;;;;;;6.43;1.30;;;12.10;99.90;;;;;;5106176;28;19944;-60
2023/02/24 06:48:57;;;;;;;;;;;11.70;87.90;;;;;;5109229;28;20075;-64
2023/02/24 06:51:23;;;;;;;4.20;1.50;;;;;;;;;;5110535;28;19956;-65
2023/02/24 06:53:51;;;;;;;4.88;1.70;;;11.70;87.90;;;;;;5110230;28;20096;-64
2023/02/24 06:56:18;;;;;;;4.18;1.70;;;11.50;99.90;;;;;;5108996;28;20084;-65
2023/02/24 06:58:49;;;;;;;3.58;1.55;;;11.70;99.90;;;;;;5108112;28;20505;-64
2023/02/24 07:01:18;;;;;;;4.70;1.55;;;11.40;99.90;;;;;;5105728;28;20067;-62
2023/02/24 07:04:01;;;;;;;6.22;1.70;;;11.20;99.90;;;;;;5109023;28;20110;-63
2023/02/24 07:06:33;;;;;;;6.53;1.73;;;11.10;99.90;;;;;;5110323;28;20484;-60
2023/02/24 07:09:04;;;;;;;7.55;2.40;;;11.70;97.70;;;;;;5109164;28;20496;-65
2023/02/24 07:11:31;;;;;;;6.57;2.85;;;11.40;89.40;;;;;;5109444;28;20035;-66
2023/02/24 07:13:58;;;;;;;7.80;2.38;;;11.10;99.90;;;;;;5109468;28;20069;-65
2023/02/24 07:16:27;;;;;;;6.22;2.22;;;11.40;91.50;;;;;;5109723;28;20137;-66
2023/02/24 07:19:01;;;;;;;7.80;2.75;;;11.10;90.80;;;;;;5109642;28;20108;-66
2023/02/24 07:21:29;;;;;;;10.77;3.88;;;11.10;91.00;;;;;;5109793;28;20114;-61
2023/02/24 07:23:56;;;;;;;13.13;4.10;;;11.30;99.90;;;;;;5109111;28;20091;-63
2023/02/24 07:26:25;;;;;;;10.10;4.10;;;11.20;99.90;;;;;;5108791;28;20072;-64
2023/02/24 07:28:56;;;;;;;13.27;4.47;;;11.50;99.90;;;;;;5108166;28;20104;-64
2023/02/24 07:31:24;;;;;;;8.40;5.55;;;11.00;91.70;;;;;;5108691;28;20076;-64
2023/02/24 07:34:00;;;;;;;11.18;5.00;;;10.90;91.90;;;;;;5107553;28;20084;-63
2023/02/24 07:36:37;;;;;;;15.50;6.43;;;11.10;99.90;;;;;;5108305;28;20543;-64
2023/02/24 07:39:08;;;;;;;12.38;5.68;;;10.90;92.40;;;;;;5108219;28;20174;-65
2023/02/24 07:41:35;;;;;;;22.00;5.78;;;11.30;99.90;;;;;;5108558;28;20060;-63
2023/02/24 07:44:02;;;;;;;20.92;10.73;;;;;;;;;;5108733;28;20125;-65
2023/02/24 07:46:29;;;;;;;14.85;5.97;;;10.60;99.90;;;;;;5108303;28;20074;-66
2023/02/24 07:49:00;;;;;;;14.02;5.93;;;10.90;94.20;;;;;;5106598;28;20094;-65
2023/02/24 07:51:28;;;;;;;16.05;5.88;;;10.70;98.30;;;;;;5106352;28;20130;-65
2023/02/24 07:53:57;;;;;;;13.70;5.00;;;;;;;;;;5106647;28;20063;-66
2023/02/24 07:56:27;;;;;;;14.18;5.50;;;;;;;;;;5105590;28;20163;-64
2023/02/24 07:58:58;;;;;;;11.60;5.07;;;;;;;;;;5105913;28;20369;-64
2023/02/24 08:01:37;;;;;;;14.43;5.20;;;;;;;;;;5105026;28;20020;-65
2023/02/24 08:04:06;;;;;;;16.35;5.50;;;;;;;;;;5107697;28;20015;-65
2023/02/24 08:06:38;;;;;;;13.45;5.68;;;;;;;;;;5108137;28;20377;-66
2023/02/24 08:09:17;;;;;;;19.25;6.03;;;11.10;99.90;;;;;;5108015;28;20035;-65
2023/02/24 08:11:54;;;;;;;14.77;5.78;;;;;;;;;;5107683;28;20409;-62
2023/02/24 08:14:22;;;;;;;;;;;;;;;;;;5108857;28;20033;-64
2023/02/24 08:16:58;;;;;;;17.95;6.30;;;10.20;99.90;;;;;;5107525;28;20373;-64
2023/02/24 08:19:38;;;;;;;17.55;6.50;;;10.50;95.60;;;;;;5106887;28;20163;-64
2023/02/24 08:22:36;;;;;;;15.02;6.65;;;10.90;99.90;;;;;;5107664;28;20028;-64
2023/02/24 08:24:59;;;;;;;16.88;6.55;;;10.70;99.90;;;;;;5106487;28;20615;-65
2023/02/24 08:27:29;;;;;;;19.70;8.00;;;;;;;;;;5107657;28;20027;-64
2023/02/24 08:30:02;;;;;;;14.82;7.18;;;9.90;99.90;;;;;;5107380;28;20290;-65
2023/02/24 08:32:43;;;;;;;22.08;8.00;;;;;;;;;;5107392;28;20057;-66
2023/02/24 08:35:14;;;;;;;20.05;8.23;;;10.10;99.90;;;;;;5107581;28;20028;-63
2023/02/24 08:37:45;;;;;;;17.25;8.00;;;10.20;95.50;;;;;;5107177;28;20054;-65
2023/02/24 08:43:31;;;;;;;18.35;9.02;;;9.90;96.00;;;;;;5111901;28;20068;-65
2023/02/24 08:45:50;;;;;;;20.27;10.27;;;;;;;;;;5110782;28;20518;-64
2023/02/24 08:48:31;;;;;;;15.32;9.63;;;9.70;98.50;;;;;;5110729;28;20042;-65
2023/02/24 08:51:00;;;;;;;28.67;12.02;;;9.80;97.80;;;;;;5110423;28;20087;-65
2023/02/24 08:53:32;;;;;;;34.40;14.60;;;9.70;99.90;;;;;;5112189;28;20084;-66
2023/02/24 08:56:11;;;;;;;35.63;20.23;;;10.10;99.90;;;;;;5110493;28;20063;-64
2023/02/24 08:58:44;;;;;;;31.33;19.52;;;9.70;98.40;;;;;;5111504;28;20121;-65
2023/02/24 09:01:22;;;;;;;34.45;19.13;;;10.30;99.00;;;;;;5110232;28;20622;-65
2023/02/24 09:03:58;;;;;;;;;;;9.70;99.00;;;;;;5111064;28;20092;-65
2023/02/24 09:06:42;;;;;;;28.52;19.52;;;10.10;99.90;;;;;;5112376;28;19955;-65
2023/02/24 09:09:16;;;;;;;30.23;17.77;;;9.60;99.20;;;;;;5112599;28;20087;-64
2023/02/24 09:11:48;;;;;;;35.25;18.35;;;10.20;99.90;;;;;;5111324;28;22047;-65
2023/02/24 09:14:19;;;;;;;32.35;15.90;;;9.50;99.70;;;;;;5110964;28;20070;-63
2023/02/24 09:17:02;;;;;;;29.67;15.55;;;9.80;99.90;;;;;;5111067;28;20306;-64
2023/02/24 09:22:30;;;;;;;39.13;18.27;;;9.60;99.70;;;;;;5110479;28;20737;-63
2023/02/24 09:25:17;;;;;;;33.28;18.00;;;9.10;99.90;;;;;;5110129;28;20068;-64
2023/02/24 09:27:55;;;;;;;32.75;16.45;;;9.60;99.90;;;;;;5110246;28;20059;-65
2023/02/24 09:30:37;;;;;;;39.10;18.88;;;9.90;99.90;;;;;;5109365;28;20157;-66
2023/02/24 09:33:23;;;;;;;37.03;20.02;;;9.40;99.90;;;;;;5110511;28;20159;-63
2023/02/24 09:36:11;;;;;;;38.20;20.55;;;9.40;99.90;;;;;;5111841;28;20098;-65
2023/02/24 09:41:36;;;;;;;30.65;18.23;;;;;;;;;;5111252;28;20193;-67
2023/02/24 09:44:18;;;;;;;32.80;17.17;;;9.50;99.90;;;;;;5111565;28;20091;-65
2023/02/24 09:46:54;;;;;;;31.08;16.15;;;9.90;99.90;;;;;;5108981;28;20087;-65
2023/02/24 09:49:38;;;;;;;28.92;17.70;;;9.30;99.90;;;;;;5109369;28;20505;-64
2023/02/24 09:52:15;;;;;;;40.08;18.58;;;9.20;99.90;;;;;;5110173;28;20542;-64
2023/02/24 09:55:17;;;;;;;35.80;19.27;;;9.50;99.90;;;;;;5109095;28;20079;-64
2023/02/24 10:00:42;;;;;;;31.08;18.35;;;9.10;99.90;;;;;;5108903;28;20140;-65
2023/02/24 10:03:40;;;;;;;29.75;17.60;;;9.10;99.90;;;;;;5110239;28;20452;-64
2023/02/24 10:06:11;;;;;;;35.70;18.73;;;9.00;99.90;;;;;;5108091;28;20072;-63
2023/02/24 10:08:45;;;;;;;31.77;17.65;;;7.20;99.90;;;;;;5108764;28;20145;-65
2023/02/24 10:11:13;;;;;;;33.67;17.80;;;9.10;99.90;;;;;;5110071;28;20068;-65
2023/02/24 10:13:48;;;;;;;36.80;20.05;;;9.60;99.90;;;;;;5109241;28;20117;-65
2023/02/24 10:16:23;;;;;;;36.60;19.73;;;9.20;99.90;;;;;;5109373;28;20446;-66
2023/02/24 10:19:23;;;;;;;38.03;20.02;;;9.20;99.90;;;;;;5110584;28;20118;-65
2023/02/24 10:22:07;;;;;;;35.67;18.98;;;9.20;99.90;;;;;;5032888;28;20089;-65
2023/02/24 10:24:48;;;;;;;34.45;17.85;;;9.70;99.90;;;;;;5033837;28;20086;-65
2023/02/24 10:27:30;;;;;;;35.38;17.88;;;8.90;99.90;;;;;;5036007;28;20071;-67
2023/02/24 10:30:18;;;;;;;38.33;16.77;;;9.30;99.90;;;;;;5031180;28;20079;-65
2023/02/24 10:32:57;;;;;;;36.63;17.60;;;9.10;99.90;;;;;;5034991;28;20082;-65
2023/02/24 10:35:32;;;;;;;40.80;18.52;;;9.20;99.90;;;;;;5033566;28;20581;-64
2023/02/24 10:38:07;;;;;;;39.40;18.63;;;8.60;99.90;;;;;;5032952;28;20070;-65
2023/02/24 10:40:51;;;;;;;39.90;16.08;;;9.00;99.90;;;;;;5036723;28;20098;-64
2023/02/24 10:43:28;;;;;;;32.70;16.88;;;9.10;99.90;;;;;;5034457;28;20095;-65
2023/02/24 10:46:06;;;;;;;29.75;15.80;;;8.70;99.90;;;;;;5031497;28;20140;-65
2023/02/24 10:48:38;;;;;;;28.15;13.90;;;8.50;99.90;;;;;;5037186;28;20064;-62
2023/02/24 10:51:30;;;;;;;30.30;13.75;;;9.00;99.90;;;;;;5033659;28;20104;-63
2023/02/24 10:54:33;;;;;;;35.10;13.90;;;8.60;99.90;;;;;;5033569;28;20066;-63
2023/02/24 10:57:16;;;;;;;42.65;16.77;;;9.50;99.90;;;;;;5053828;28;20090;-65
2023/02/24 11:00:29;;;;;;;29.20;14.73;;;8.50;99.90;;;;;;5107381;28;20234;-64
2023/02/24 11:03:06;;;;;;;35.63;15.60;;;8.90;99.90;;;;;;5107350;28;20091;-63
2023/02/24 11:06:05;;;;;;;36.58;14.90;;;8.50;99.90;;;;;;5108041;28;20099;-65
2023/02/24 11:11:32;;;;;;;28.55;13.50;;;8.90;99.90;;;;;;5107785;28;20068;-65
2023/02/24 11:19:46;;;;;;;20.08;10.40;;;8.70;99.90;;;;;;5108937;28;20029;-66
2023/02/24 11:22:21;;;;;;;17.00;9.00;;;8.80;99.90;;;;;;5109192;28;20095;-65
2023/02/24 11:24:49;;;;;;;23.48;9.32;;;8.80;99.90;;;;;;5107771;28;20563;-62
2023/02/24 11:27:21;;;;;;;16.50;8.77;;;8.90;99.90;;;;;;5108946;28;20216;-64
2023/02/24 11:29:57;;;;;;;22.65;8.80;;;;;;;;;;5107739;28;20093;-66
2023/02/24 11:32:41;;;;;;;18.65;7.75;;;9.10;99.90;;;;;;5108314;28;20027;-65
2023/02/24 11:35:07;;;;;;;14.23;7.40;;;;;;;;;;5108901;28;20436;-65
2023/02/24 11:37:45;;;;;;;15.15;7.15;;;9.10;99.90;;;;;;5108584;28;20132;-64
2023/02/24 11:40:17;;;;;;;14.60;6.57;;;8.80;99.90;;;;;;5108860;28;20137;-65
2023/02/24 11:42:56;;;;;;;15.93;6.57;;;9.20;99.90;;;;;;5106302;28;20064;-66
2023/02/24 11:45:34;;;;;;;14.15;5.75;;;8.80;99.90;;;;;;5108617;28;20121;-66
2023/02/24 11:48:24;;;;;;;12.68;5.53;;;9.00;99.90;;;;;;5108221;28;21639;-65
2023/02/24 11:51:01;;;;;;;12.80;4.43;;;8.90;99.90;;;;;;5095539;28;20153;-64
2023/02/24 11:53:50;;;;;;;21.85;6.90;;;8.70;99.90;;;;;;5108888;28;20071;-66
2023/02/24 11:56:38;;;;;;;21.15;10.63;;;8.70;99.90;;;;;;5107207;28;20083;-65
2023/02/24 11:59:23;;;;;;;30.92;15.88;;;8.50;99.90;;;;;;5107835;28;20088;-65
2023/02/24 12:02:13;;;;;;;33.50;16.92;;;9.00;99.90;;;;;;5108326;28;20083;-65
2023/02/24 12:05:05;;;;;;;36.55;20.33;;;8.50;99.90;;;;;;5107493;28;20091;-65
2023/02/24 12:07:37;;;;;;;38.22;23.05;;;8.50;99.90;;;;;;5108652;28;20058;-64
2023/02/24 12:10:18;;;;;;;45.20;23.30;;;8.60;99.90;;;;;;5107170;28;20040;-65
2023/02/24 12:12:47;;;;;;;37.42;22.80;;;8.50;99.90;;;;;;5106569;28;20044;-64
2023/02/24 12:15:23;;;;;;;35.58;20.08;;;8.60;99.90;;;;;;5108764;28;20088;-65
2023/02/24 12:18:14;;;;;;;37.57;18.10;;;8.40;99.90;;;;;;5108966;28;20107;-64
2023/02/24 12:20:47;;;;;;;29.02;16.17;;;8.30;99.90;;;;;;5107885;28;20391;-65
2023/02/24 12:23:33;;;;;;;31.85;16.58;;;8.20;99.90;;;;;;5109460;28;20504;-66
2023/02/24 12:26:26;;;;;;;37.88;17.52;;;8.60;99.90;;;;;;5107551;28;20517;-65
2023/02/24 12:29:01;;;;;;;26.90;15.70;;;7.90;99.90;;;;;;5106901;28;20102;-64
2023/02/24 12:31:33;;;;;;;30.98;16.25;;;8.60;99.90;;;;;;5107076;28;20107;-65
2023/02/24 12:34:26;;;;;;;27.88;15.35;;;8.30;99.90;;;;;;5107676;28;20072;-65
2023/02/24 12:37:16;;;;;;;32.60;15.45;;;8.10;99.90;;;;;;5108250;28;20388;-64
2023/02/24 12:40:10;;;;;;;25.65;13.95;;;8.40;99.90;;;;;;5108929;28;20521;-65
2023/02/24 12:43:13;;;;;;;29.85;14.90;;;8.20;99.90;;;;;;5107666;28;20071;-67
2023/02/24 12:45:39;;;;;;;35.63;15.40;;;;;;;;;;5107052;28;20076;-65
2023/02/24 12:48:41;;;;;;;34.47;14.82;;;8.10;99.90;;;;;;5108836;28;20441;-65
2023/02/24 12:51:35;;;;;;;29.05;14.90;;;8.20;99.90;;;;;;5107679;28;20083;-66
2023/02/24 12:54:15;;;;;;;25.60;13.50;;;8.10;99.90;;;;;;5108305;28;20099;-65
2023/02/24 12:56:53;;;;;;;37.95;13.00;;;7.70;99.90;;;;;;5107338;28;20079;-64
2023/02/24 12:59:26;;;;;;;25.55;12.52;;;8.10;99.90;;;;;;5105655;28;20543;-63
2023/02/24 13:02:02;;;;;;;28.90;12.43;;;8.00;99.90;;;;;;5107134;28;20529;-64
2023/02/24 13:04:29;;;;;;;24.52;12.30;;;;;;;;;;5106904;28;20076;-64
2023/02/24 13:07:08;;;;;;;32.63;14.38;;;8.20;99.90;;;;;;5108778;28;20080;-63
2023/02/24 13:09:56;;;;;;;32.80;13.45;;;8.10;99.90;;;;;;5106390;28;20117;-63
2023/02/24 13:12:32;;;;;;;21.50;12.07;;;8.30;99.90;;;;;;5107493;28;20079;-64
2023/02/24 13:15:02;;;;;;;26.42;11.98;;;7.80;99.90;;;;;;5107025;28;20084;-63
2023/02/24 13:17:28;;;;;;;23.10;11.05;;;;;;;;;;5105463;28;20072;-61
2023/02/24 13:20:14;;;;;;;24.98;11.60;;;8.10;99.90;;;;;;5107089;28;20569;-66
2023/02/24 13:22:42;;;;;;;24.85;12.63;;;8.60;99.90;;;;;;5089743;28;20068;-64
2023/02/24 13:25:08;;;;;;;27.33;10.73;;;;;;;;;;5107295;28;20072;-66
2023/02/24 13:27:53;;;;;;;29.73;10.77;;;8.10;99.90;;;;;;5110663;28;20064;-64
2023/02/24 13:30:20;;;;;;;24.38;10.75;;;;;;;;;;5109332;28;20429;-64
2023/02/24 13:32:58;;;;;;;23.27;10.50;;;8.10;99.90;;;;;;5110512;28;20076;-64
2023/02/24 13:35:24;;;;;;;27.23;10.50;;;;;;;;;;5111206;28;20070;-64
2023/02/24 13:37:52;;;;;;;26.05;9.82;;;8.00;99.90;;;;;;5111382;28;20076;-66
2023/02/24 13:40:21;;;;;;;25.70;10.90;;;7.70;99.90;;;;;;5111409;28;20088;-63
2023/02/24 13:42:56;;;;;;;24.67;10.13;;;7.60;99.90;;;;;;5110402;28;20064;-63
2023/02/24 13:45:24;;;;;;;21.50;9.98;;;7.80;99.90;;;;;;5110013;28;20142;-64
2023/02/24 13:48:00;;;;;;;35.05;12.43;;;8.10;99.90;;;;;;5111070;28;20558;-65
2023/02/24 13:50:32;;;;;;;24.83;10.93;;;7.80;99.90;;;;;;5111108;28;20493;-64
2023/02/24 13:53:17;;;;;;;25.73;11.27;;;8.00;99.90;;;;;;5111030;28;20600;-65
2023/02/24 13:56:03;;;;;;;24.98;11.60;;;8.10;99.90;;;;;;5110051;28;20104;-65
2023/02/24 13:58:45;;;;;;;34.13;13.30;;;8.10;99.90;;;;;;5110562;28;20445;-64
2023/02/24 14:01:15;;;;;;;25.95;10.95;;;8.50;99.90;;;;;;5109108;28;20109;-65
2023/02/24 14:03:46;;;;;;;32.58;11.65;;;7.60;99.90;;;;;;5110370;28;20521;-64